Terminal Aerodrome Forecast
Issued by NWS Twin Cities, MN

Home | Current Version | Previous Version | Text Only | Print | Product List | Glossary On
Versions: 1 2 3 4 5 6 7 8 9 10 11 12 13 14 15 16 17 18 19
000
FTUS43 KMPX 011739
TAFSTC
TAF
KSTC 011739Z 0118/0218 19007KT P6SM SCT070
     FM020200 VRB03KT P6SM SKC
     FM021400 18008KT P6SM SKC
     FM021700 19011G18KT P6SM SKC=

USA.gov is the U.S. government's official web portal to all federal, state and local government web resources and services.